Terminal Aerodrome Forecast
Issued by NWS Flagstaff, AZ

Home | Current Version | Previous Version | Text Only | Print | Product List | Glossary On
Versions: 1 2 3 4 5 6 7 8 9 10 11 12 13 14 15 16 17
586
FTUS45 KFGZ 252339
TAFFLG
TAF
KFLG 252339Z 2600/2624 05009KT P6SM VCSH FEW020 OVC090
     FM260300 VRB04KT P6SM BKN120
     FM261900 24013G22KT P6SM SCT100=

USA.gov is the U.S. government's official web portal to all federal, state and local government web resources and services.